createdAt,value
2018-03-21T00:00:51.117Z,99.99
2018-03-21T00:02:50.819Z,99.99
2018-03-21T00:03:51.188Z,99.99
2018-03-21T00:04:51.115Z,99.99
2018-03-21T00:06:51.135Z,99.99
2018-03-21T00:07:51.136Z,99.99
2018-03-21T00:08:50.896Z,99.99
2018-03-21T00:09:50.902Z,99.99
2018-03-21T00:10:51.187Z,99.99
2018-03-21T00:12:05.844Z,99.99
2018-03-21T00:12:51.253Z,99.99
2018-03-21T00:13:51.212Z,99.99
2018-03-21T00:14:51.229Z,99.99
2018-03-21T00:15:50.976Z,99.99
2018-03-21T00:16:51.257Z,99.99
2018-03-21T00:17:50.999Z,99.99
2018-03-21T00:18:51.272Z,99.99
2018-03-21T00:20:51.295Z,99.99
2018-03-21T00:21:51.310Z,99.99
2018-03-21T00:22:51.331Z,99.99
2018-03-21T00:23:51.338Z,99.99
2018-03-21T00:24:51.356Z,99.99
2018-03-21T00:25:51.095Z,99.99
2018-03-21T00:26:51.386Z,99.99
2018-03-21T00:28:06.035Z,99.99
2018-03-21T00:28:51.395Z,99.99
2018-03-21T00:29:51.405Z,99.99
2018-03-21T00:30:51.415Z,99.99
2018-03-21T00:31:51.432Z,99.99
2018-03-21T00:32:51.508Z,99.99
2018-03-21T00:33:51.449Z,99.99
2018-03-21T00:34:51.204Z,99.99
2018-03-21T00:36:51.497Z,99.99
2018-03-21T00:37:51.497Z,99.99
2018-03-21T00:38:51.518Z,99.99
2018-03-21T00:39:51.521Z,99.99
2018-03-21T00:40:51.543Z,99.99
2018-03-21T00:41:51.548Z,99.99
2018-03-21T00:42:51.638Z,99.99
2018-03-21T00:44:06.233Z,99.99
2018-03-21T00:44:51.591Z,99.99
2018-03-21T00:45:51.600Z,99.99
2018-03-21T00:46:51.604Z,99.99
2018-03-21T00:47:51.625Z,99.99
2018-03-21T00:48:51.629Z,99.99
2018-03-21T00:49:51.382Z,99.99
2018-03-21T00:50:51.663Z,99.99
2018-03-21T00:51:51.664Z,99.99
2018-03-21T00:52:51.680Z,99.99
2018-03-21T00:53:51.689Z,99.99
2018-03-21T00:54:51.707Z,99.99
2018-03-21T00:55:51.713Z,99.99
2018-03-21T00:56:51.741Z,99.99
2018-03-21T00:57:51.736Z,99.99
2018-03-21T00:59:06.407Z,99.99
2018-03-21T00:59:51.761Z,99.99
2018-03-21T01:00:51.520Z,99.99
2018-03-21T01:01:51.785Z,99.99
2018-03-21T01:02:51.796Z,99.99
2018-03-21T01:03:51.908Z,99.99
2018-03-21T01:04:51.826Z,99.99
2018-03-21T01:05:51.571Z,99.99
2018-03-21T01:06:51.852Z,99.99
2018-03-21T01:07:51.952Z,99.99
2018-03-21T01:09:51.619Z,99.99
2018-03-21T01:10:51.906Z,99.99
2018-03-21T01:11:51.903Z,99.99
2018-03-21T01:12:51.920Z,99.99
2018-03-21T01:13:51.924Z,99.99
2018-03-21T01:14:51.938Z,99.99
2018-03-21T01:15:51.946Z,99.99
2018-03-21T01:16:51.978Z,99.99
2018-03-21T01:17:51.972Z,99.99
2018-03-21T01:18:51.997Z,99.99
2018-03-21T01:19:51.995Z,99.99
2018-03-21T01:20:52.019Z,99.99
2018-03-21T01:21:51.760Z,99.99
2018-03-21T01:22:52.094Z,99.99
2018-03-21T01:23:52.045Z,99.99
2018-03-21T01:24:52.056Z,99.99
2018-03-21T01:25:52.065Z,99.99
2018-03-21T01:26:52.078Z,99.99
2018-03-21T01:27:52.090Z,99.99
2018-03-21T01:28:52.116Z,99.99
2018-03-21T01:29:52.119Z,99.99
2018-03-21T01:31:06.781Z,99.99
2018-03-21T01:31:52.137Z,99.99
2018-03-21T01:32:51.890Z,99.99
2018-03-21T01:33:52.160Z,99.99
2018-03-21T01:34:51.913Z,99.99
2018-03-21T01:35:51.924Z,99.99
2018-03-21T01:36:52.200Z,99.99
2018-03-21T01:38:51.960Z,99.99
2018-03-21T01:40:52.240Z,99.99
2018-03-21T01:42:52.262Z,99.99
2018-03-21T01:43:52.018Z,99.99
2018-03-21T01:44:52.288Z,99.99
2018-03-21T01:47:06.987Z,99.99
2018-03-21T01:47:52.327Z,99.99
2018-03-21T01:48:52.335Z,99.99
2018-03-21T01:49:52.347Z,99.99
2018-03-21T01:50:52.359Z,99.99
2018-03-21T01:51:52.372Z,99.99
2018-03-21T01:52:52.123Z,99.99
2018-03-21T01:53:52.394Z,99.99
2018-03-21T01:55:52.258Z,99.99
2018-03-21T01:56:52.435Z,99.99
2018-03-21T01:57:52.441Z,99.99
2018-03-21T01:58:52.455Z,99.99
2018-03-21T01:59:52.470Z,99.99
2018-03-21T02:00:52.475Z,99.99
2018-03-21T02:01:52.486Z,99.99
2018-03-21T02:03:07.155Z,99.99
2018-03-21T02:03:52.509Z,99.99
2018-03-21T02:04:52.519Z,99.99
2018-03-21T02:05:52.533Z,99.99
2018-03-21T02:06:52.545Z,99.99
2018-03-21T02:07:52.299Z,99.99
2018-03-21T02:08:52.567Z,99.99
2018-03-21T02:11:52.602Z,99.99
2018-03-21T02:12:52.615Z,99.99
2018-03-21T02:13:52.624Z,99.99
2018-03-21T02:14:52.638Z,99.99
2018-03-21T02:15:52.390Z,99.99
2018-03-21T02:16:52.660Z,99.99
2018-03-21T02:17:52.673Z,99.99
2018-03-21T02:19:07.341Z,99.99
2018-03-21T02:19:52.437Z,99.99
2018-03-21T02:20:52.448Z,99.99
2018-03-21T02:21:52.718Z,99.99
2018-03-21T02:22:52.729Z,99.99
2018-03-21T02:23:52.740Z,99.99
2018-03-21T02:24:52.753Z,99.99
2018-03-21T02:25:52.774Z,99.99
2018-03-21T02:26:52.776Z,99.99
2018-03-21T02:28:52.798Z,99.99
2018-03-21T02:29:52.551Z,99.99
2018-03-21T02:30:52.822Z,99.99
2018-03-21T02:31:52.833Z,99.99
2018-03-21T02:32:52.855Z,99.99
2018-03-21T02:34:07.516Z,99.99
2018-03-21T02:34:52.872Z,99.99
2018-03-21T02:35:52.880Z,99.99
2018-03-21T02:36:52.898Z,99.99
2018-03-21T02:37:52.902Z,99.99
2018-03-21T02:38:52.918Z,99.99
2018-03-21T02:39:52.926Z,99.99
2018-03-21T02:40:52.943Z,99.99
2018-03-21T02:41:52.952Z,99.99
2018-03-21T02:42:52.963Z,99.99
2018-03-21T02:43:52.976Z,99.99
2018-03-21T02:44:52.723Z,99.99
2018-03-21T02:45:52.997Z,99.99
2018-03-21T02:46:53.005Z,99.99
2018-03-21T02:47:53.017Z,99.99
2018-03-21T02:48:53.032Z,99.99
2018-03-21T02:49:53.048Z,99.99
2018-03-21T02:50:53.057Z,99.99
2018-03-21T02:51:53.066Z,99.99
2018-03-21T02:52:52.815Z,99.99
2018-03-21T02:53:53.086Z,99.99
2018-03-21T02:54:53.097Z,99.99
2018-03-21T02:55:52.850Z,99.99
2018-03-21T02:56:53.170Z,99.99
2018-03-21T02:57:52.972Z,99.99
2018-03-21T02:58:52.984Z,99.99
2018-03-21T02:59:53.160Z,99.99
2018-03-21T03:00:53.169Z,99.99
2018-03-21T03:01:53.183Z,99.99
2018-03-21T03:02:53.193Z,99.99
2018-03-21T03:03:53.204Z,99.99
2018-03-21T03:04:53.218Z,99.99
2018-03-21T03:06:07.881Z,99.99
2018-03-21T03:06:53.236Z,99.99
2018-03-21T03:07:52.989Z,99.99
2018-03-21T03:08:52.998Z,99.99
2018-03-21T03:09:53.267Z,99.99
2018-03-21T03:10:53.280Z,99.99
2018-03-21T03:11:53.294Z,99.99
2018-03-21T03:12:53.302Z,99.99
2018-03-21T03:14:53.326Z,99.99
2018-03-21T03:15:53.345Z,99.99
2018-03-21T03:16:53.349Z,99.99
2018-03-21T03:17:53.360Z,99.99
2018-03-21T03:18:53.370Z,99.99
2018-03-21T03:19:53.381Z,99.99
2018-03-21T03:20:53.404Z,99.99
2018-03-21T03:22:08.063Z,99.99
2018-03-21T03:22:53.416Z,99.99
2018-03-21T03:23:53.427Z,99.99
2018-03-21T03:24:53.180Z,99.99
2018-03-21T03:25:53.197Z,99.99
2018-03-21T03:26:53.460Z,99.99
2018-03-21T03:27:53.472Z,99.99
2018-03-21T03:28:53.484Z,99.99
2018-03-21T03:29:53.494Z,99.99
2018-03-21T03:30:53.511Z,99.99
2018-03-21T03:31:53.574Z,99.99
2018-03-21T03:32:53.529Z,99.99
2018-03-21T03:33:53.287Z,99.99
2018-03-21T03:34:53.553Z,99.99
2018-03-21T03:35:53.305Z,99.99
2018-03-21T03:36:53.574Z,99.99
2018-03-21T03:38:08.247Z,99.99
2018-03-21T03:38:53.598Z,99.99
2018-03-21T03:39:53.607Z,99.99
2018-03-21T03:40:53.619Z,99.99
2018-03-21T03:41:53.372Z,99.99
2018-03-21T03:42:53.644Z,99.99
2018-03-21T03:43:53.653Z,99.99
2018-03-21T03:44:53.408Z,99.99
2018-03-21T03:45:53.677Z,99.99
2018-03-21T03:46:53.688Z,99.99
2018-03-21T03:47:53.701Z,99.99
2018-03-21T03:49:53.722Z,99.99
2018-03-21T03:50:53.734Z,99.99
2018-03-21T03:51:53.754Z,99.99
2018-03-21T03:52:53.755Z,99.99
2018-03-21T03:54:08.425Z,99.99
2018-03-21T03:54:53.520Z,99.99
2018-03-21T03:55:53.790Z,99.99
2018-03-21T03:56:53.802Z,99.99
2018-03-21T03:57:53.812Z,99.99
2018-03-21T03:58:53.566Z,99.99
2018-03-21T03:59:53.840Z,99.99
2018-03-21T04:00:53.845Z,99.99
2018-03-21T04:01:53.858Z,99.99
2018-03-21T04:03:53.878Z,99.99
2018-03-21T04:04:53.890Z,99.99
2018-03-21T04:05:53.903Z,99.99
2018-03-21T04:06:53.914Z,99.99
2018-03-21T04:07:53.929Z,99.99
2018-03-21T04:09:08.593Z,99.99
2018-03-21T04:09:53.949Z,99.99
2018-03-21T04:10:53.960Z,99.99
2018-03-21T04:11:53.712Z,99.99
2018-03-21T04:12:53.980Z,99.99
2018-03-21T04:14:54.004Z,99.99
2018-03-21T04:15:54.021Z,99.99
2018-03-21T04:16:53.769Z,99.99
2018-03-21T04:17:54.043Z,99.99
2018-03-21T04:18:54.052Z,99.99
2018-03-21T04:19:54.058Z,99.99
2018-03-21T04:20:54.072Z,99.99
2018-03-21T04:21:54.081Z,99.99
2018-03-21T04:22:54.094Z,99.99
2018-03-21T04:23:54.104Z,99.99
2018-03-21T04:24:54.115Z,99.99
2018-03-21T04:25:54.126Z,99.99
2018-03-21T04:26:54.139Z,99.99
2018-03-21T04:27:54.154Z,99.99
2018-03-21T04:28:54.158Z,99.99
2018-03-21T04:29:54.172Z,99.99
2018-03-21T04:30:54.182Z,99.99
2018-03-21T04:31:54.192Z,99.99
2018-03-21T04:32:54.204Z,99.99
2018-03-21T04:33:54.220Z,99.99
2018-03-21T04:34:54.229Z,99.99
2018-03-21T04:35:54.239Z,99.99
2018-03-21T04:36:54.250Z,99.99
2018-03-21T04:37:54.270Z,99.99
2018-03-21T04:38:54.272Z,99.99
2018-03-21T04:39:54.284Z,99.99
2018-03-21T04:41:08.952Z,99.99
2018-03-21T04:41:54.305Z,99.99
2018-03-21T04:42:54.317Z,99.99
2018-03-21T04:43:54.327Z,99.99
2018-03-21T04:44:54.338Z,99.99
2018-03-21T04:45:54.349Z,99.99
2018-03-21T04:46:54.363Z,99.99
2018-03-21T04:47:54.114Z,99.99
2018-03-21T04:48:54.391Z,99.99
2018-03-21T04:49:54.401Z,99.99
2018-03-21T04:51:54.416Z,99.99
2018-03-21T04:52:54.430Z,99.99
2018-03-21T04:53:54.440Z,99.99
2018-03-21T04:54:54.450Z,99.99
2018-03-21T04:55:54.461Z,99.99
2018-03-21T04:57:09.130Z,99.99
2018-03-21T04:57:54.485Z,99.99
2018-03-21T04:58:54.234Z,99.99
2018-03-21T04:59:54.510Z,99.99
2018-03-21T05:00:54.618Z,99.99
2018-03-21T05:01:54.626Z,99.99
2018-03-21T05:02:54.550Z,99.99
2018-03-21T05:04:54.561Z,99.99
2018-03-21T05:05:54.312Z,99.99
2018-03-21T05:07:54.590Z,99.99
2018-03-21T05:08:54.604Z,99.99
2018-03-21T05:09:54.616Z,99.99
2018-03-21T05:10:54.627Z,99.99
2018-03-21T05:11:54.640Z,99.99
2018-03-21T05:13:09.309Z,99.99
2018-03-21T05:13:54.403Z,99.99
2018-03-21T05:14:54.676Z,99.99
2018-03-21T05:15:54.680Z,99.99
2018-03-21T05:16:54.692Z,99.99
2018-03-21T05:17:54.704Z,99.99
2018-03-21T05:18:54.714Z,99.99
2018-03-21T05:19:54.725Z,99.99
2018-03-21T05:20:54.478Z,99.99
2018-03-21T05:21:54.751Z,99.99
2018-03-21T05:22:54.765Z,99.99
2018-03-21T05:23:54.769Z,99.99
2018-03-21T05:24:54.780Z,99.99
2018-03-21T05:25:54.793Z,99.99
2018-03-21T05:26:54.809Z,99.99
2018-03-21T05:27:54.817Z,99.99
2018-03-21T05:29:09.484Z,99.99
2018-03-21T05:29:54.579Z,99.99
2018-03-21T05:30:54.857Z,99.99
2018-03-21T05:31:54.858Z,99.99
2018-03-21T05:32:54.871Z,99.99
2018-03-21T05:33:54.884Z,99.99
2018-03-21T05:34:54.894Z,99.99
2018-03-21T05:35:54.904Z,99.99
2018-03-21T05:36:54.924Z,99.99
2018-03-21T05:37:54.928Z,99.99
2018-03-21T05:38:54.936Z,99.99
2018-03-21T05:39:54.691Z,99.99
2018-03-21T05:41:54.974Z,99.99
2018-03-21T05:42:54.988Z,99.99
2018-03-21T05:44:09.657Z,99.99
2018-03-21T05:44:55.017Z,99.99
2018-03-21T05:45:55.028Z,99.99
2018-03-21T05:46:55.050Z,99.99
2018-03-21T05:47:55.085Z,99.99
2018-03-21T05:48:55.069Z,99.99
2018-03-21T05:51:54.850Z,99.99
2018-03-21T05:52:55.129Z,99.99
2018-03-21T05:53:55.138Z,99.99
2018-03-21T05:54:55.164Z,99.99
2018-03-21T05:55:55.169Z,99.99
2018-03-21T05:56:55.186Z,99.99
2018-03-21T05:57:55.200Z,99.99
2018-03-21T05:58:55.220Z,99.99
2018-03-21T05:59:55.231Z,99.99
2018-03-21T06:00:54.995Z,99.99
2018-03-21T06:01:55.266Z,99.99
2018-03-21T06:02:55.288Z,99.99
2018-03-21T06:03:55.301Z,99.99
2018-03-21T06:04:55.319Z,99.99
2018-03-21T06:05:55.334Z,99.99
2018-03-21T06:06:55.355Z,99.99
2018-03-21T06:07:55.373Z,99.99
2018-03-21T06:09:55.410Z,99.99
2018-03-21T06:10:55.431Z,99.99
2018-03-21T06:11:55.450Z,99.99
2018-03-21T06:12:55.472Z,99.99
2018-03-21T06:13:55.234Z,99.99
2018-03-21T06:14:55.514Z,99.99
2018-03-21T06:16:10.195Z,99.99
2018-03-21T06:16:55.298Z,99.99
2018-03-21T06:17:55.320Z,99.99
2018-03-21T06:18:55.614Z,99.99
2018-03-21T06:19:55.623Z,99.99
2018-03-21T06:20:55.439Z,99.99
2018-03-21T06:21:55.742Z,99.99
2018-03-21T06:26:55.790Z,99.99
2018-03-21T06:27:55.811Z,99.99
2018-03-21T06:28:55.839Z,99.99
2018-03-21T06:29:55.862Z,99.99
2018-03-21T06:30:55.629Z,99.99
2018-03-21T06:32:10.573Z,99.05
2018-03-21T06:32:55.942Z,99.43
2018-03-21T06:33:55.703Z,98.63
2018-03-21T06:34:55.996Z,97.25
2018-03-21T06:35:56.016Z,97.68
2018-03-21T06:36:56.038Z,98.25
2018-03-21T06:37:56.067Z,96.83
2018-03-21T06:39:56.113Z,94.56
2018-03-21T06:40:55.880Z,93.8
2018-03-21T06:42:56.192Z,93.65
2018-03-21T06:43:56.219Z,93.08
2018-03-21T06:44:56.245Z,91.38
2018-03-21T06:45:56.271Z,91.28
2018-03-21T06:46:56.296Z,90.15
2018-03-21T06:48:10.984Z,89.48
2018-03-21T06:48:56.352Z,87.4
2018-03-21T06:49:56.117Z,86.16
2018-03-21T06:50:56.411Z,86.35
2018-03-21T06:51:56.435Z,86.49
2018-03-21T06:54:56.514Z,84.88
2018-03-21T06:55:56.279Z,84.5
2018-03-21T06:56:56.306Z,82.6
2018-03-21T06:57:56.602Z,82.23
2018-03-21T06:58:56.621Z,83.27
2018-03-21T06:59:56.663Z,82.23
2018-03-21T07:00:56.438Z,81.88
2018-03-21T07:01:56.705Z,81.13
2018-03-21T07:02:56.728Z,80.94
2018-03-21T07:04:11.517Z,79.52
2018-03-21T07:04:56.523Z,78.66
2018-03-21T07:05:56.813Z,78.28
2018-03-21T07:06:56.841Z,77.24
2018-03-21T07:07:56.873Z,76.71
2018-03-21T07:08:56.895Z,76.2
2018-03-21T07:09:56.923Z,76.76
2018-03-21T07:10:56.950Z,76.42
2018-03-21T07:11:56.719Z,76.42
2018-03-21T07:12:56.747Z,75.85
2018-03-21T07:13:57.043Z,75.28
2018-03-21T07:14:57.163Z,74.24
2018-03-21T07:15:56.832Z,73.57
2018-03-21T07:16:57.120Z,74.68
2018-03-21T07:17:57.150Z,74.87
2018-03-21T07:19:11.838Z,74.33
2018-03-21T07:19:57.208Z,74.15
2018-03-21T07:20:56.981Z,74.43
2018-03-21T07:21:57.260Z,73.57
2018-03-21T07:22:57.290Z,73.67
2018-03-21T07:23:57.318Z,73.67
2018-03-21T07:24:57.352Z,73.1
2018-03-21T07:27:57.436Z,72.72
2018-03-21T07:29:57.486Z,73.19
2018-03-21T07:30:57.518Z,73.1
2018-03-21T07:31:57.542Z,73.96
2018-03-21T07:32:57.574Z,72.95
2018-03-21T07:33:57.338Z,71.62
2018-03-21T07:34:57.629Z,71.52
2018-03-21T07:35:57.655Z,72.19
2018-03-21T07:36:57.422Z,71.52
2018-03-21T07:37:57.709Z,71.14
2018-03-21T07:38:57.755Z,70.38
2018-03-21T07:39:57.765Z,70.29
2018-03-21T07:40:57.790Z,70.29
2018-03-21T07:41:57.824Z,69.91
2018-03-21T07:42:57.853Z,70.57
2018-03-21T07:43:57.881Z,69.34
2018-03-21T07:44:57.901Z,70
2018-03-21T07:45:57.928Z,69.46
2018-03-21T07:46:57.699Z,68.8
2018-03-21T07:47:57.989Z,69.18
2018-03-21T07:48:58.012Z,68.52
2018-03-21T07:49:58.038Z,68.04
2018-03-21T07:51:12.728Z,67.38
2018-03-21T07:51:58.096Z,67.6
2018-03-21T07:52:58.124Z,67.13
2018-03-21T07:53:58.148Z,66.46
2018-03-21T07:54:58.174Z,66.05
2018-03-21T07:55:58.200Z,66.27
2018-03-21T07:56:58.273Z,65.89
2018-03-21T07:57:57.995Z,66.08
2018-03-21T07:58:58.282Z,66.27
2018-03-21T08:01:58.102Z,65.6
2018-03-21T08:02:58.391Z,65.51
2018-03-21T08:03:58.157Z,66.05
2018-03-21T08:04:58.543Z,66.08
2018-03-21T08:05:58.211Z,65.89
2018-03-21T08:07:13.157Z,65.32
2018-03-21T08:07:58.521Z,65.41
2018-03-21T08:08:58.546Z,65.8
2018-03-21T08:09:58.319Z,65.7
2018-03-21T08:10:58.603Z,65.13
2018-03-21T08:11:58.626Z,65.13
2018-03-21T08:12:58.653Z,65.32
2018-03-21T08:13:58.678Z,64.94
2018-03-21T08:14:58.703Z,65.51
2018-03-21T08:15:58.734Z,65.6
2018-03-21T08:17:58.523Z,65.32
2018-03-21T08:18:58.548Z,65.8
2018-03-21T08:19:58.575Z,65.8
2018-03-21T08:20:58.860Z,65.41
2018-03-21T08:21:58.887Z,64.75
2018-03-21T08:23:13.571Z,65.13
2018-03-21T08:23:58.937Z,64.94
2018-03-21T08:24:58.703Z,64.75
2018-03-21T08:25:58.987Z,64.87
2018-03-21T08:26:59.014Z,64.31
2018-03-21T08:27:58.826Z,64.5
2018-03-21T08:28:59.141Z,63.83
2018-03-21T08:29:59.093Z,62.88
2018-03-21T08:30:58.865Z,62.85
2018-03-21T08:31:59.164Z,62.78
2018-03-21T08:32:59.178Z,62.78
2018-03-21T08:33:59.189Z,62.88
2018-03-21T08:34:59.215Z,62.3
2018-03-21T08:35:59.427Z,61.83
2018-03-21T08:36:59.267Z,61.74
2018-03-21T08:37:59.294Z,61.35
2018-03-21T08:39:13.975Z,60.78
2018-03-21T08:39:59.344Z,60.69
2018-03-21T08:41:59.393Z,61.07
2018-03-21T08:42:59.415Z,60.97
2018-03-21T08:43:59.446Z,60.78
2018-03-21T08:44:59.463Z,61.35
2018-03-21T08:45:59.231Z,60.21
2018-03-21T08:46:59.257Z,60.21
2018-03-21T08:47:59.543Z,59.27
2018-03-21T08:48:59.565Z,58.98
2018-03-21T08:49:59.597Z,59.36
2018-03-21T08:50:59.615Z,59.8
2018-03-21T08:51:59.642Z,60.28
2018-03-21T08:52:59.409Z,61.23
2018-03-21T08:54:14.352Z,60.85
2018-03-21T08:54:59.726Z,60.78
2018-03-21T08:55:59.738Z,59.93
2018-03-21T08:56:59.767Z,58.98
2018-03-21T08:57:59.788Z,58.59
2018-03-21T08:58:59.815Z,58.5
2018-03-21T08:59:59.838Z,57.84
2018-03-21T09:00:59.871Z,56.79
2018-03-21T09:01:59.636Z,56.88
2018-03-21T09:02:59.916Z,56.88
2018-03-21T09:03:59.678Z,56.31
2018-03-21T09:04:59.961Z,55.65
2018-03-21T09:05:59.729Z,55.83
2018-03-21T09:07:00.073Z,55.36
2018-03-21T09:08:00.037Z,54.41
2018-03-21T09:09:00.067Z,54.32
2018-03-21T09:10:00.086Z,53.65
2018-03-21T09:10:59.851Z,54.13
2018-03-21T09:12:00.141Z,53.94
2018-03-21T09:13:00.192Z,53.55
2018-03-21T09:14:00.187Z,53.08
2018-03-21T09:15:00.207Z,53.17
2018-03-21T09:16:00.233Z,53.75
2018-03-21T09:16:59.997Z,53.75
2018-03-21T09:18:00.284Z,52.89
2018-03-21T09:19:00.303Z,53.55
2018-03-21T09:20:00.331Z,53.17
2018-03-21T09:21:00.095Z,53.75
2018-03-21T09:23:00.402Z,52.61
2018-03-21T09:24:00.426Z,53.63
2018-03-21T09:25:00.191Z,53.08
2018-03-21T09:26:15.135Z,53.63
2018-03-21T09:27:00.240Z,53.43
2018-03-21T09:28:00.531Z,52.86
2018-03-21T09:29:00.547Z,53.63
2018-03-21T09:30:00.571Z,53.63
2018-03-21T09:31:00.335Z,53.05
2018-03-21T09:32:00.385Z,53.43
2018-03-21T09:33:00.385Z,54.36
2018-03-21T09:35:00.696Z,53.53
2018-03-21T09:36:00.715Z,53.53
2018-03-21T09:37:00.738Z,53.59
2018-03-21T09:38:00.764Z,53.43
2018-03-21T09:39:00.844Z,53.05
2018-03-21T09:40:00.820Z,53.15
2018-03-21T09:41:00.876Z,52.96
2018-03-21T09:42:15.518Z,54.1
2018-03-21T09:43:00.883Z,54.48
2018-03-21T09:44:00.905Z,54.03
2018-03-21T09:45:00.668Z,54.6
2018-03-21T09:46:00.953Z,53.46
2018-03-21T09:47:00.979Z,53.01
2018-03-21T09:48:00.740Z,53.11
2018-03-21T09:50:00.796Z,49.11
2018-03-21T09:51:00.812Z,49.2
2018-03-21T09:52:01.103Z,49.87
2018-03-21T09:53:00.861Z,50.25
2018-03-21T09:54:01.143Z,49.96
2018-03-21T09:55:00.906Z,49.58
2018-03-21T09:56:01.189Z,49.4
2018-03-21T09:57:01.215Z,49.3
2018-03-21T09:58:15.896Z,49.3
2018-03-21T09:59:01.260Z,49.13
2018-03-21T10:00:01.026Z,49.04
2018-03-21T10:01:01.307Z,49.04
2018-03-21T10:02:01.336Z,47.99
2018-03-21T10:03:01.356Z,47.42
2018-03-21T10:04:01.379Z,47.42
2018-03-21T10:05:01.401Z,46.66
2018-03-21T10:06:01.427Z,46.35
2018-03-21T10:07:01.452Z,47.2
2018-03-21T10:08:01.472Z,47.58
2018-03-21T10:10:01.518Z,48.54
2018-03-21T10:11:01.284Z,48.63
2018-03-21T10:12:01.572Z,48.63
2018-03-21T10:13:01.592Z,49.08
2018-03-21T10:14:16.314Z,49.08
2018-03-21T10:15:01.634Z,49.37
2018-03-21T10:16:01.661Z,49.27
2018-03-21T10:17:01.683Z,49.49
2018-03-21T10:18:01.710Z,49.68
2018-03-21T10:19:01.752Z,49.49
2018-03-21T10:20:01.749Z,49.68
2018-03-21T10:21:01.518Z,49.68
2018-03-21T10:22:01.797Z,49.68
2018-03-21T10:23:01.564Z,49.94
2018-03-21T10:24:01.843Z,50.13
2018-03-21T10:25:01.609Z,50.7
2018-03-21T10:26:01.888Z,50.79
2018-03-21T10:27:01.962Z,51.46
2018-03-21T10:28:01.675Z,51.84
2018-03-21T10:29:16.629Z,52.41
2018-03-21T10:30:01.722Z,52.89
2018-03-21T10:31:01.745Z,52.8
2018-03-21T10:32:02.026Z,52.41
2018-03-21T10:35:02.092Z,53.05
2018-03-21T10:36:01.857Z,53.63
2018-03-21T10:38:01.901Z,53.53
2018-03-21T10:39:02.184Z,53.43
2018-03-21T10:40:02.205Z,53.72
2018-03-21T10:41:02.228Z,53.43
2018-03-21T10:42:02.249Z,53.72
2018-03-21T10:43:02.013Z,53.43
2018-03-21T10:44:02.299Z,53.05
2018-03-21T10:45:02.347Z,54.07
2018-03-21T10:46:02.079Z,54.1
2018-03-21T10:47:02.357Z,53.72
2018-03-21T10:48:02.384Z,53.43
2018-03-21T10:49:02.402Z,54.19
2018-03-21T10:51:02.187Z,54.48
2018-03-21T10:52:02.467Z,53.43
2018-03-21T10:53:02.488Z,53.41
2018-03-21T10:54:02.514Z,53.53
2018-03-21T10:56:02.294Z,53.69
2018-03-21T10:57:02.315Z,54.17
2018-03-21T10:58:02.602Z,54.26
2018-03-21T10:59:02.665Z,54.38
2018-03-21T11:00:02.637Z,54.19
2018-03-21T11:01:17.319Z,55.5
2018-03-21T11:02:02.724Z,54.67
2018-03-21T11:03:02.802Z,54.07
2018-03-21T11:04:02.463Z,54.14
2018-03-21T11:05:02.767Z,54.61
2018-03-21T11:07:02.794Z,54.55
2018-03-21T11:08:02.806Z,55.4
2018-03-21T11:09:02.826Z,55.59
2018-03-21T11:10:02.846Z,55.3
2018-03-21T11:11:02.873Z,55.3
2018-03-21T11:12:02.887Z,55.21
2018-03-21T11:13:02.910Z,56.35
2018-03-21T11:14:02.929Z,56.83
2018-03-21T11:15:02.691Z,56.83
2018-03-21T11:16:02.711Z,55.62
2018-03-21T11:17:17.650Z,54.48
2018-03-21T11:18:03.011Z,54.57
2018-03-21T11:19:03.033Z,53.91
2018-03-21T11:20:03.053Z,53.81
2018-03-21T11:21:03.072Z,54.86
2018-03-21T11:22:03.091Z,54.29
2018-03-21T11:23:03.117Z,54.48
2018-03-21T11:24:03.132Z,54.48
2018-03-21T11:25:03.156Z,54.1
2018-03-21T11:26:02.914Z,54.45
2018-03-21T11:27:03.194Z,55.3
2018-03-21T11:28:03.221Z,54.55
2018-03-21T11:29:03.241Z,55.5
2018-03-21T11:30:03.265Z,55.71
2018-03-21T11:31:03.278Z,55.4
2018-03-21T11:32:03.302Z,56.35
2018-03-21T11:33:17.977Z,56.92
2018-03-21T11:34:03.336Z,56.83
2018-03-21T11:35:03.355Z,56.63
2018-03-21T11:36:03.375Z,57.21
2018-03-21T11:37:03.395Z,56.73
2018-03-21T11:38:03.416Z,57.14
2018-03-21T11:39:03.519Z,56.85
2018-03-21T11:40:03.203Z,55.9
2018-03-21T11:42:03.496Z,56.85
2018-03-21T11:43:03.516Z,57.04
2018-03-21T11:44:03.543Z,56.19
2018-03-21T11:45:03.609Z,56.29
2018-03-21T11:46:03.575Z,55.43
2018-03-21T11:47:03.337Z,55.52
2018-03-21T11:48:03.616Z,56.85
2018-03-21T11:49:18.295Z,55.33
2018-03-21T11:50:03.658Z,55.71
2018-03-21T11:51:03.686Z,55.05
2018-03-21T11:52:03.436Z,54.74
2018-03-21T11:53:03.816Z,55.59
2018-03-21T11:54:03.737Z,54.86
2018-03-21T11:55:03.759Z,54.55
2018-03-21T11:56:03.780Z,54.93
2018-03-21T11:57:03.537Z,55.21
2018-03-21T11:58:03.821Z,55.85
2018-03-21T11:59:03.843Z,55.5
2018-03-21T12:00:03.857Z,55.21
2018-03-21T12:01:03.622Z,55.52
2018-03-21T12:02:03.639Z,55.62
2018-03-21T12:03:03.658Z,54.86
2018-03-21T12:04:18.596Z,54.19
2018-03-21T12:05:03.960Z,54.57
2018-03-21T12:06:03.718Z,53.91
2018-03-21T12:07:03.738Z,54.19
2018-03-21T12:08:03.759Z,53.55
2018-03-21T12:09:04.036Z,53.15
2018-03-21T12:10:04.070Z,53.81
2018-03-21T12:11:04.078Z,54.19
2018-03-21T12:12:03.836Z,54
2018-03-21T12:13:03.856Z,54.48
2018-03-21T12:15:04.157Z,54.03
2018-03-21T12:16:03.919Z,53.17
2018-03-21T12:17:04.196Z,53.08
2018-03-21T12:18:03.958Z,53.84
2018-03-21T12:19:04.239Z,53.53
2018-03-21T12:20:03.997Z,52.76
2018-03-21T12:21:04.015Z,52.67
2018-03-21T12:22:04.037Z,53.53
2018-03-21T12:23:04.321Z,54.38
2018-03-21T12:24:04.337Z,53.43
2018-03-21T12:25:04.358Z,53.53
2018-03-21T12:26:04.376Z,53.43
2018-03-21T12:27:04.143Z,53.05
2018-03-21T12:28:04.154Z,53.05
2018-03-21T12:29:04.180Z,53.53
2018-03-21T12:30:04.457Z,53.24
2018-03-21T12:31:04.215Z,54.1
2018-03-21T12:32:04.234Z,54
2018-03-21T12:33:04.532Z,54.38
2018-03-21T12:34:04.274Z,53.53
2018-03-21T12:35:04.555Z,53.63
2018-03-21T12:36:19.231Z,54.48
2018-03-21T12:37:04.592Z,54.19
2018-03-21T12:38:04.613Z,54.48
2018-03-21T12:39:04.629Z,54.19
2018-03-21T12:40:04.392Z,55.52
2018-03-21T12:41:04.412Z,55.33
2018-03-21T12:42:04.432Z,55.43
2018-03-21T12:43:04.451Z,54.48
2018-03-21T12:44:04.733Z,53.81
2018-03-21T12:45:04.749Z,53.65
2018-03-21T12:46:04.511Z,53.17
2018-03-21T12:47:04.530Z,53.43
2018-03-21T12:48:04.810Z,53.05
2018-03-21T12:49:04.830Z,53.15
2018-03-21T12:50:05.085Z,52.01
2018-03-21T12:51:04.871Z,52.67
2018-03-21T12:52:19.547Z,52.48
2018-03-21T12:53:04.909Z,52.22
2018-03-21T12:54:04.934Z,51.43
2018-03-21T12:55:04.949Z,52.01
2018-03-21T12:56:04.740Z,52.01
2018-03-21T12:58:05.006Z,52.67
2018-03-21T13:00:05.052Z,51.53
2018-03-21T13:01:05.070Z,51.34
2018-03-21T13:02:05.089Z,51.62
2018-03-21T13:03:05.105Z,52.01
2018-03-21T13:04:05.131Z,51.91
2018-03-21T13:05:04.893Z,51.34
2018-03-21T13:06:05.166Z,51.75
2018-03-21T13:07:05.183Z,51.84
2018-03-21T13:08:19.863Z,51.93
2018-03-21T13:09:05.223Z,51.65
2018-03-21T13:10:04.984Z,51.65
2018-03-21T13:11:05.263Z,50.89
2018-03-21T13:12:05.023Z,50.89
2018-03-21T13:13:05.306Z,50.99
2018-03-21T13:14:05.066Z,50.99
2018-03-21T13:15:05.351Z,51.56
2018-03-21T13:17:05.381Z,50.42
2018-03-21T13:18:05.412Z,50.96
2018-03-21T13:19:05.421Z,50.68
2018-03-21T13:20:05.182Z,50.29
2018-03-21T13:21:05.487Z,50.87
2018-03-21T13:22:05.480Z,50.68
2018-03-21T13:23:05.580Z,50.7
2018-03-21T13:24:20.182Z,50.23
2018-03-21T13:25:05.286Z,49.44
2018-03-21T13:26:05.607Z,49.82
2018-03-21T13:27:05.578Z,50.87
2018-03-21T13:28:05.602Z,50.01
2018-03-21T13:29:05.631Z,50.2
2018-03-21T13:30:05.409Z,51.06
2018-03-21T13:31:05.671Z,50.7
2018-03-21T13:33:05.698Z,49.75
2018-03-21T13:34:05.559Z,49.56
2018-03-21T13:35:05.487Z,50.04
2018-03-21T13:36:05.759Z,49.46
2018-03-21T13:37:05.517Z,49.08
2018-03-21T13:38:05.546Z,49.27
2018-03-21T13:39:20.476Z,49.08
2018-03-21T13:40:05.849Z,49.27
2018-03-21T13:41:05.857Z,49.18
2018-03-21T13:42:05.885Z,48.71
2018-03-21T13:43:05.898Z,48.13
2018-03-21T13:44:05.657Z,48.71
2018-03-21T13:45:05.676Z,48.9
2018-03-21T13:46:05.975Z,49.37
2018-03-21T13:47:05.743Z,49.94
2018-03-21T13:48:06.003Z,49.85
2018-03-21T13:49:06.013Z,49.75
2018-03-21T13:50:06.033Z,49.08